Home > Products > Valid Products > TAF

000
FTUS44 KCRP 020612 AAA
TAFLRD
TAF AMD
KLRD 020612Z 0206/0306 13006KT P6SM SCT015
      TEMPO 0206/0210 BKN015
     FM021200 11006KT P6SM BKN025
     FM021500 11008KT P6SM SCT035
     FM021900 12009KT P6SM BKN060=



000
FTUS44 KCRP 020532
TAFCRP
TAF
KCRP 020532Z 0206/0306 13005KT P6SM VCSH FEW015 SCT025
      TEMPO 0206/0210 -SHRA
     FM021000 VRB03KT P6SM VCSH SCT020
      TEMPO 0210/0213 5SM -SHRA BR BKN020
     FM021300 13004KT P6SM VCSH BKN025
     FM021500 14012KT P6SM VCTS SCT030CB
     FM022100 15015KT P6SM FEW035=



000
FTUS44 KCRP 020532
TAFCRP
TAF
KCRP 020532Z 0206/0306 13005KT P6SM VCSH FEW015 SCT025
      TEMPO 0206/0210 -SHRA
     FM021000 VRB03KT P6SM VCSH SCT020
      TEMPO 0210/0213 5SM -SHRA BR BKN020
     FM021300 13004KT P6SM VCSH BKN025
     FM021500 14012KT P6SM VCTS SCT030CB
     FM022100 15015KT P6SM FEW035=



000
FTUS44 KCRP 020532
TAFLRD
TAF
KLRD 020532Z 0206/0306 13006KT P6SM SCT025
      TEMPO 0207/0211 BKN025
     FM021200 11006KT P6SM BKN025
     FM021500 11008KT P6SM SCT035
     FM021900 12009KT P6SM BKN060=



000
FTUS44 KCRP 020532
TAFVCT
TAF
KVCT 020532Z 0206/0306 10005KT P6SM VCSH SCT025
      TEMPO 0206/0209 -SHRA
     FM020900 VRB03KT P6SM VCSH SCT009 BKN020
      TEMPO 0210/0212 5SM -SHRA BR
     FM021300 09004KT P6SM VCSH BKN025
     FM021600 15011KT P6SM VCTS SCT030CB
     FM022300 12009KT P6SM SCT030=



000
FTUS44 KCRP 020532
TAFALI
TAF
KALI 020532Z 0206/0306 13007KT P6SM FEW025
     FM020900 VRB03KT 6SM BR SCT015
      TEMPO 0209/0212 4SM BR BKN015
     FM021300 11004KT P6SM VCSH SCT020 BKN030
     FM021600 13012KT P6SM VCTS SCT035CB
     FM022300 12008KT P6SM FEW020=



000
FTUS44 KCRP 020532
TAFVCT
TAF
KVCT 020532Z 0206/0306 10005KT P6SM VCSH SCT025
      TEMPO 0206/0209 -SHRA
     FM020900 VRB03KT P6SM VCSH SCT009 BKN020
      TEMPO 0210/0212 5SM -SHRA BR
     FM021300 09004KT P6SM VCSH BKN025
     FM021600 15011KT P6SM VCTS SCT030CB
     FM022300 12009KT P6SM SCT030=



000
FTUS44 KCRP 020532
TAFLRD
TAF
KLRD 020532Z 0206/0306 13006KT P6SM SCT025
      TEMPO 0207/0211 BKN025
     FM021200 11006KT P6SM BKN025
     FM021500 11008KT P6SM SCT035
     FM021900 12009KT P6SM BKN060=



000
FTUS44 KCRP 020532
TAFALI
TAF
KALI 020532Z 0206/0306 13007KT P6SM FEW025
     FM020900 VRB03KT 6SM BR SCT015
      TEMPO 0209/0212 4SM BR BKN015
     FM021300 11004KT P6SM VCSH SCT020 BKN030
     FM021600 13012KT P6SM VCTS SCT035CB
     FM022300 12008KT P6SM FEW020=



000
FTUS44 KCRP 012320
TAFALI
TAF
KALI 012320Z 0200/0224 13012KT P6SM FEW040
     FM020400 13007KT P6SM FEW025
     FM020900 VRB03KT 5SM BR SCT015
      TEMPO 0209/0212 BKN015
     FM021300 11004KT P6SM VCSH SCT020 BKN030
     FM021600 13012KT P6SM VCTS SCT035CB=



000
FTUS44 KCRP 012320
TAFCRP
TAF
KCRP 012320Z 0200/0224 12015G20KT P6SM SCT025 BKN120
     FM020300 13012KT P6SM SCT025
     FM021000 VRB03KT P6SM SCT020
      TEMPO 0210/0213 5SM BR BKN020
     FM021300 13004KT P6SM VCSH BKN025
     FM021500 14012KT P6SM VCTS SCT030CB
     FM022100 15015KT P6SM FEW035=



000
FTUS44 KCRP 012320
TAFLRD
TAF
KLRD 012320Z 0200/0224 14012KT P6SM VCSH SCT040
     FM020300 13012G18KT P6SM SCT100
     FM020700 13006KT P6SM SCT025
      TEMPO 0210/0214 BKN025
     FM021500 11008KT P6SM SCT035=



000
FTUS44 KCRP 012320
TAFVCT
TAF
KVCT 012320Z 0200/0224 13012G16KT P6SM SCT040 BKN250
     FM020300 10005KT P6SM SCT025
     FM020900 VRB03KT P6SM SCT009 BKN020
      TEMPO 0210/0212 5SM BR
     FM021300 09004KT P6SM VCSH BKN025
     FM021600 15010KT P6SM VCTS SCT030CB=



000
FTUS44 KCRP 011743 CCA
TAFCRP
TAF COR
KCRP 011743Z 0118/0218 14012KT P6SM VCTS SCT030CB BKN250
     FM012100 12015G20KT P6SM SCT035 BKN250
     FM020300 13012KT P6SM SCT025
     FM021000 VRB03KT P6SM SCT020
      TEMPO 0210/0213 5SM BR
     FM021300 13004KT P6SM VCSH BKN025
     FM021500 14012KT P6SM SCT030=



000
FTUS44 KCRP 011738
TAFCRP
TAF
KCRP 011738Z 0118/0218 14012KT P6SM VCTS SCT030CB BKN250
     FM012100 12015G20KT P6SM SCT035 BKN250
     FM020300 13009KT P6SM SCT025
     FM020900 VRB03KT P6SM SCT009 BKN020
      TEMPO 0210/0212 5SM BR
     FM021200 13004KT P6SM VCSH BKN025
     FM021500 14012KT P6SM SCT030=



000
FTUS44 KCRP 011738
TAFALI
TAF
KALI 011738Z 0118/0218 13012KT P6SM SCT030 BKN060
      TEMPO 0120/0122 VRB15G25KT 3SM TSRA BKN025CB
     FM012300 13014G18KT P6SM SCT040 BKN250
     FM020300 13007KT P6SM SCT025
     FM020900 VRB03KT 5SM BR SCT015
     FM021300 11004KT P6SM VCSH SCT020 BKN030
     FM021600 13012KT P6SM SCT035=



000
FTUS44 KCRP 011738
TAFVCT
TAF
KVCT 011738Z 0118/0218 08003KT P6SM VCTS SCT030CB BKN250
      TEMPO 0120/0122 VRB15G25KT 3SM TSRA BR SCT025CB
     FM012300 13012G16KT P6SM SCT040 BKN250
     FM020300 10005KT P6SM SCT025
     FM020900 VRB03KT P6SM SCT009 BKN020
      TEMPO 0210/0212 5SM BR
     FM021300 09004KT P6SM VCSH BKN025
     FM021600 12007KT P6SM SCT030=



000
FTUS44 KCRP 011738
TAFLRD
TAF
KLRD 011738Z 0118/0218 10007KT P6SM BKN035
     FM012200 14012KT P6SM SCT050
     FM020200 13012G18KT P6SM SCT100
     FM020700 13006KT P6SM SCT025
      TEMPO 0210/0213 BKN025
     FM021500 11008KT P6SM SCT035=



000
FTUS44 KCRP 011738
TAFCRP
TAF
KCRP 011738Z 0118/0218 14012KT P6SM VCTS SCT030CB BKN250
     FM012100 12015G20KT P6SM SCT035 BKN250
     FM020300 13009KT P6SM SCT025
     FM020900 VRB03KT P6SM SCT009 BKN020
      TEMPO 0210/0212 5SM BR
     FM021200 13004KT P6SM VCSH BKN025
     FM021500 14012KT P6SM SCT030=



000
FTUS44 KCRP 011738
TAFLRD
TAF
KLRD 011738Z 0118/0218 10007KT P6SM BKN035
     FM012200 14012KT P6SM SCT050
     FM020200 13012G18KT P6SM SCT100
     FM020700 13006KT P6SM SCT025
      TEMPO 0210/0213 BKN025
     FM021500 11008KT P6SM SCT035=



000
FTUS44 KCRP 011738
TAFVCT
TAF
KVCT 011738Z 0118/0218 08003KT P6SM VCTS SCT030CB BKN250
      TEMPO 0120/0122 VRB15G25KT 3SM TSRA BR SCT025CB
     FM012300 13012G16KT P6SM SCT040 BKN250
     FM020300 10005KT P6SM SCT025
     FM020900 VRB03KT P6SM SCT009 BKN020
      TEMPO 0210/0212 5SM BR
     FM021300 09004KT P6SM VCSH BKN025
     FM021600 12007KT P6SM SCT030=



000
FTUS44 KCRP 011738
TAFALI
TAF
KALI 011738Z 0118/0218 13012KT P6SM SCT030 BKN060
      TEMPO 0120/0122 VRB15G25KT 3SM TSRA BKN025CB
     FM012300 13014G18KT P6SM SCT040 BKN250
     FM020300 13007KT P6SM SCT025
     FM020900 VRB03KT 5SM BR SCT015
     FM021300 11004KT P6SM VCSH SCT020 BKN030
     FM021600 13012KT P6SM SCT035=



000
FTUS44 KCRP 011130
TAFCRP
TAF
KCRP 011130Z 0112/0212 14008KT P6SM VCSH SCT025 BKN150
     FM011600 13010KT P6SM VCTS SCT035CB BKN200
      TEMPO 0117/0121 VRB15G25KT 4SM TSRA BR BKN035CB
     FM012100 13012KT P6SM FEW020 BKN100
     FM020000 12006KT P6SM FEW022 BKN250=



000
FTUS44 KCRP 011130
TAFLRD
TAF
KLRD 011130Z 0112/0212 10005KT P6SM BKN020
     FM011500 16008KT P6SM SCT035
     FM012200 14012KT P6SM VCTS SCT050CB
     FM020200 13013KT P6SM BKN100
     FM020600 13006KT P6SM SCT024=



000
FTUS44 KCRP 011130
TAFALI
TAF
KALI 011130Z 0112/0212 14006KT P6SM SCT025 BKN035
     FM011600 13012KT P6SM VCTS BKN035CB OVC150
      TEMPO 0118/0122 VRB15G25KT 3SM TSRA BR BKN035CB
     FM012300 13010KT P6SM FEW020 BKN150
     FM020300 13004KT P6SM SCT022=



000
FTUS44 KCRP 011130
TAFVCT
TAF
KVCT 011130Z 0112/0212 VRB06KT P6SM VCTS SCT024CB BKN100
      TEMPO 0115/0119 VRB15G25KT 3SM TSRA BR SCT025CB BKN035
     FM012100 14011KT P6SM FEW025 BKN100
     FM020000 11004KT P6SM SCT024=



000
FTUS44 KCRP 010938 AAA
TAFVCT
TAF AMD
KVCT 010938Z 0110/0206 14003KT P6SM VCSH SCT022 SCT200
     FM011200 VRB03KT P6SM VCTS SCT024CB BKN035
     FM011500 12008KT P6SM VCTS BKN035CB OVC120
     FM012200 14011KT P6SM FEW025 BKN100=



000
FTUS44 KCRP 010938 AAA
TAFVCT
TAF AMD
KVCT 010938Z 0110/0206 14003KT P6SM VCSH SCT022 SCT200
     FM011200 VRB03KT P6SM VCTS SCT024CB BKN035
     FM011500 12008KT P6SM VCTS BKN035CB OVC120
     FM012200 14011KT P6SM FEW025 BKN100=



000
FTUS44 KCRP 010935 AAB
TAFCRP
TAF AMD
KCRP 010935Z 0110/0206 13006KT P6SM -SHRA FEW016 SCT022 BKN100
     FM011100 15008KT P6SM VCTS SCT025CB BKN035 BKN150
     FM011500 14010KT P6SM VCTS BKN040CB BKN120
     FM012100 13012KT P6SM FEW020 BKN100=



000
FTUS44 KCRP 010903 AAA
TAFLRD
TAF AMD
KLRD 010903Z 0109/0206 14005KT P6SM BKN012
     FM011600 16008KT P6SM BKN035
     FM012200 14012KT P6SM VCTS SCT050CB
     FM020200 13013KT P6SM SCT040 BKN100=



000
FTUS44 KCRP 010903 AAA
TAFLRD
TAF AMD
KLRD 010903Z 0109/0206 14005KT P6SM BKN012
     FM011600 16008KT P6SM BKN035
     FM012200 14012KT P6SM VCTS SCT050CB
     FM020200 13013KT P6SM SCT040 BKN100=



000
FTUS44 KCRP 010838 AAA
TAFALI
TAF AMD
KALI 010838Z 0109/0206 VRB04KT P6SM FEW018 SCT250
      TEMPO 0109/0112 BKN022
     FM011200 14006KT P6SM VCTS SCT025CB BKN035
     FM011700 13012KT P6SM VCTS BKN035CB OVC150
     FM012300 13010KT P6SM BKN150=



000
FTUS44 KCRP 010805 AAA
TAFCRP
TAF AMD
KCRP 010805Z 0108/0206 13006KT P6SM VCTS FEW016 SCT022CB BKN100
      TEMPO 0108/0111 15015G25KT 4SM TSRA BR SCT025CB BKN035
     FM011100 15008KT P6SM TSRA SCT025CB BKN035 BKN150
      TEMPO 0111/0115 3SM +TSRA SCT025CB BKN035
     FM011500 14010KT P6SM VCTS BKN040CB BKN120
     FM012100 13012KT P6SM FEW020 BKN100=



000
FTUS44 KCRP 010531
TAFALI
TAF
KALI 010531Z 0106/0206 VRB04KT P6SM FEW018 SCT250
     FM011200 14006KT P6SM VCTS SCT025CB BKN035
     FM011700 13012KT P6SM VCTS BKN035CB OVC150
     FM012300 13010KT P6SM BKN150=



000
FTUS44 KCRP 010531
TAFCRP
TAF
KCRP 010531Z 0106/0206 11006KT P6SM VCSH FEW016 SCT022 BKN100
     FM011100 15008KT P6SM TSRA SCT025CB BKN035 BKN150
      TEMPO 0111/0115 3SM +TSRA SCT025CB BKN035
     FM011500 14010KT P6SM VCTS BKN040CB BKN120
     FM012100 13012KT P6SM FEW020 BKN100=



000
FTUS44 KCRP 010531
TAFLRD
TAF
KLRD 010531Z 0106/0206 13006KT P6SM SCT022
     FM011100 14007KT P6SM BKN012
     FM011600 16008KT P6SM BKN035
     FM012200 14012KT P6SM VCTS SCT050CB
     FM020200 13013KT P6SM SCT040 BKN100=



000
FTUS44 KCRP 010531
TAFVCT
TAF
KVCT 010531Z 0106/0206 14003KT P6SM FEW022 SCT200
     FM011200 VRB03KT P6SM VCTS SCT024CB BKN035
     FM011500 12008KT P6SM VCTS BKN035CB OVC120
     FM012200 14011KT P6SM FEW025 BKN100=



000
FTUS44 KCRP 010346 AAC
TAFCRP
TAF AMD
KCRP 010346Z 0104/0124 13007KT P6SM SCT020 BKN250
      TEMPO 0104/0108 SHRA BKN020
     FM011300 15008KT P6SM VCSH BKN035 BKN200
     FM011600 14010KT P6SM VCTS BKN040CB BKN120
     FM011800 13012KT P6SM -TSRA BKN050CB OVC150=



000
FTUS44 KCRP 010212 AAB
TAFCRP
TAF AMD
KCRP 010212Z 0102/0124 13007KT P6SM SCT020 BKN250
      TEMPO 0102/0105 BKN020
     FM011300 15008KT P6SM VCSH BKN035 BKN200
     FM011600 14010KT P6SM VCTS BKN040CB BKN120
     FM011800 13012KT P6SM -TSRA BKN050CB OVC150=



000
FTUS44 KCRP 010212 AAB
TAFCRP
TAF AMD
KCRP 010212Z 0102/0124 13007KT P6SM SCT020 BKN250
      TEMPO 0102/0105 BKN020
     FM011300 15008KT P6SM VCSH BKN035 BKN200
     FM011600 14010KT P6SM VCTS BKN040CB BKN120
     FM011800 13012KT P6SM -TSRA BKN050CB OVC150=



000
FTUS44 KCRP 010134 AAA
TAFLRD
TAF AMD
KLRD 010134Z 0102/0124 13010KT P6SM BKN200
     FM011100 14007KT P6SM BKN012
     FM011600 16008KT P6SM BKN035
     FM012200 14012KT P6SM VCTS BKN050CB=



000
FTUS44 KCRP 312337
TAFCRP
TAF
KCRP 312337Z 0100/0124 12010KT P6SM SCT150 OVC250
     FM011300 15008KT P6SM VCSH BKN035 BKN200
     FM011600 14010KT P6SM VCTS BKN040CB BKN120
     FM011800 13012KT P6SM -TSRA BKN050CB OVC150=



000
FTUS44 KCRP 312337
TAFALI
TAF
KALI 312337Z 0100/0124 11008KT P6SM BKN150 OVC250
     FM011400 15008KT P6SM VCSH BKN035 BKN200
     FM011700 14010KT P6SM VCTS BKN040CB BKN120
     FM011900 13012KT P6SM -TSRA BKN050CB OVC150=



000
FTUS44 KCRP 312337
TAFVCT
TAF
KVCT 312337Z 0100/0124 11008KT P6SM BKN250
     FM011300 VRB03KT P6SM VCSH BKN030
     FM011600 12008KT P6SM VCTS BKN040CB OVC120
     FM011800 13012KT 6SM TSRA BR BKN040CB OVC100=



000
FTUS44 KCRP 312337
TAFLRD
TAF
KLRD 312337Z 0100/0124 11020G28KT P6SM VCSH BKN060 OVC200
      TEMPO 0100/0102 5SM TSRA BR OVC050CB
     FM010200 13015KT P6SM SCT080 BKN200
     FM011100 14007KT P6SM BKN012
     FM011600 16008KT P6SM BKN035
     FM012200 14012KT P6SM VCTS BKN050CB=



000
FTUS44 KCRP 312306 AAB
TAFVCT
TAF AMD
KVCT 312306Z 3123/0118 12012KT P6SM BKN250
     FM010700 09002KT P6SM SCT009 BKN020 OVC200
      TEMPO 0110/0113 5SM BR BKN009 OVC020
     FM011400 14008KT P6SM VCTS BKN025CB PROB30 0116/0118 VRB15G20KT
      5SM TSRA OVC020CB=



000
FTUS44 KCRP 312305 AAA
TAFLRD
TAF AMD
KLRD 312305Z 3123/0118 10025G40KT P6SM VCSH SCT070 BKN150
     FM010000 10020G28KT P6SM VCTS BKN050CB OVC200
      TEMPO 0100/0102 3SM +TSRA BR OVC030CB
     FM010200 13015KT P6SM SCT060 BKN250
     FM011100 14007KT P6SM BKN012
     FM011500 16008KT P6SM SCT020 BKN030=



000
FTUS44 KCRP 312149 AAB
TAFCRP
TAF AMD
KCRP 312149Z 3122/0118 11010KT P6SM VCSH SCT050 BKN150 OVC250
     FM312300 13010KT P6SM FEW040 OVC200
      TEMPO 0109/0113 BKN020
     FM011400 14008KT P6SM VCTS BKN025CB PROB30 0114/0118 VRB15G20KT
      5SM TSRA OVC020CB=



000
FTUS44 KCRP 312146 AAA
TAFVCT
TAF AMD
KVCT 312146Z 3122/0118 15010KT P6SM BKN250
     FM010700 09002KT P6SM SCT009 BKN020 OVC200
      TEMPO 0110/0113 5SM BR BKN009 OVC020
     FM011400 14008KT P6SM VCTS BKN025CB PROB30 0116/0118 VRB15G20KT
      5SM TSRA OVC020CB=



000
FTUS44 KCRP 312145 AAA
TAFALI
TAF AMD
KALI 312145Z 3122/0118 08012KT P6SM OVC200
     FM312300 11008KT P6SM OVC250
     FM010600 11003KT P6SM BKN020 OVC200
      TEMPO 0110/0113 5SM BR OVC015
     FM011500 14008KT P6SM VCTS BKN030CB PROB30 0116/0118 VRB15G20KT
      5SM TSRA OVC025CB=



000
FTUS44 KCRP 311723
TAFVCT
TAF
KVCT 311723Z 3118/0118 06003KT P6SM VCTS SCT035CB BKN250
      TEMPO 3118/3121 VRB15G25KT 3SM TSRA BKN030CB
     FM010000 14008KT P6SM SCT050 BKN250
     FM010700 09002KT P6SM SCT009 BKN020 OVC200
      TEMPO 0110/0113 5SM BR BKN009 OVC020
     FM011400 14008KT P6SM VCTS BKN025CB PROB30 0116/0118 VRB15G20KT
      5SM TSRA OVC020CB=



000
FTUS44 KCRP 311723
TAFLRD
TAF
KLRD 311723Z 3118/0118 16009KT P6SM BKN025 OVC150
     FM312100 14010KT P6SM VCTS BKN040CB OVC250
     FM010200 13015KT P6SM SCT060 BKN250
     FM011100 14007KT P6SM BKN012
     FM011500 16008KT P6SM SCT020 BKN030=



000
FTUS44 KCRP 311723
TAFCRP
TAF
KCRP 311723Z 3118/0118 20006KT P6SM VCTS SCT025CB BKN060
      TEMPO 3118/3120 VRB15G25KT 5SM TSRA BKN025CB
     FM312200 14015G20KT P6SM SCT035 BKN250
     FM010300 11007KT P6SM SCT020 BKN200
      TEMPO 0109/0113 BKN020
     FM011400 14008KT P6SM VCTS BKN025CB PROB30 0114/0118 VRB15G20KT
      5SM TSRA OVC020CB=



000
FTUS44 KCRP 311723
TAFALI
TAF
KALI 311723Z 3118/0118 16008KT P6SM VCTS SCT030CB BKN040
      TEMPO 3118/3122 VRB15G25KT 5SM TSRA BKN030CB
     FM010000 14008KT P6SM SCT050 BKN250
     FM010600 11003KT P6SM BKN020 OVC200
      TEMPO 0110/0113 5SM BR OVC015
     FM011500 14008KT P6SM VCTS BKN030CB PROB30 0116/0118 VRB15G20KT
      5SM TSRA OVC025CB=



000
FTUS44 KCRP 311723
TAFVCT
TAF
KVCT 311723Z 3118/0118 06003KT P6SM VCTS SCT035CB BKN250
      TEMPO 3118/3121 VRB15G25KT 3SM TSRA BKN030CB
     FM010000 14008KT P6SM SCT050 BKN250
     FM010700 09002KT P6SM SCT009 BKN020 OVC200
      TEMPO 0110/0113 5SM BR BKN009 OVC020
     FM011400 14008KT P6SM VCTS BKN025CB PROB30 0116/0118 VRB15G20KT
      5SM TSRA OVC020CB=



000
FTUS44 KCRP 311723
TAFCRP
TAF
KCRP 311723Z 3118/0118 20006KT P6SM VCTS SCT025CB BKN060
      TEMPO 3118/3120 VRB15G25KT 5SM TSRA BKN025CB
     FM312200 14015G20KT P6SM SCT035 BKN250
     FM010300 11007KT P6SM SCT020 BKN200
      TEMPO 0109/0113 BKN020
     FM011400 14008KT P6SM VCTS BKN025CB PROB30 0114/0118 VRB15G20KT
      5SM TSRA OVC020CB=



000
FTUS44 KCRP 311723
TAFLRD
TAF
KLRD 311723Z 3118/0118 16009KT P6SM BKN025 OVC150
     FM312100 14010KT P6SM VCTS BKN040CB OVC250
     FM010200 13015KT P6SM SCT060 BKN250
     FM011100 14007KT P6SM BKN012
     FM011500 16008KT P6SM SCT020 BKN030=



000
FTUS44 KCRP 311723
TAFALI
TAF
KALI 311723Z 3118/0118 16008KT P6SM VCTS SCT030CB BKN040
      TEMPO 3118/3122 VRB15G25KT 5SM TSRA BKN030CB
     FM010000 14008KT P6SM SCT050 BKN250
     FM010600 11003KT P6SM BKN020 OVC200
      TEMPO 0110/0113 5SM BR OVC015
     FM011500 14008KT P6SM VCTS BKN030CB PROB30 0116/0118 VRB15G20KT
      5SM TSRA OVC025CB=



000
FTUS44 KCRP 311129
TAFVCT
TAF
KVCT 311129Z 3112/0112 15005KT P6SM FEW020 SCT250
      TEMPO 3112/3114 6SM BR
     FM311500 17006KT P6SM VCSH SCT025 BKN035
     FM311700 15010KT P6SM VCTS SCT040CB SCT250
      TEMPO 3117/3121 VRB15G25KT 3SM TSRA BR BKN040CB
     FM312200 14007KT P6SM SCT200
     FM011000 14005KT P6SM VCSH SCT020=



000
FTUS44 KCRP 311129
TAFALI
TAF
KALI 311129Z 3112/0112 14005KT P6SM FEW020 BKN200
     FM311500 15008KT P6SM SCT025 SCT035
      TEMPO 3115/3117 BKN024
     FM311800 13012G17KT P6SM VCTS SCT040CB SCT250
      TEMPO 3118/3122 VRB15G25KT 4SM TSRA BR BKN040CB
     FM010000 14008KT P6SM SCT250=



000
FTUS44 KCRP 311129
TAFLRD
TAF
KLRD 311129Z 3112/0112 13008KT P6SM FEW018
      TEMPO 3112/3113 BKN014
     FM311500 14008KT P6SM SCT040 SCT200
     FM312300 14010KT P6SM VCSH SCT060 SCT200
     FM010200 13015KT P6SM SKC
     FM010600 14007KT P6SM FEW012=



000
FTUS44 KCRP 311129
TAFCRP
TAF
KCRP 311129Z 3112/0112 16006KT P6SM FEW024 BKN200
     FM311500 15008KT P6SM VCSH SCT025 BKN035
     FM311800 13012G18KT P6SM VCTS SCT035CB SCT250
     FM312100 13014G20KT P6SM SCT035 BKN250
     FM010200 14010KT P6SM FEW020 SCT250
     FM011000 14005KT P6SM VCSH SCT020 BKN250=



000
FTUS44 KCRP 310525
TAFLRD
TAF
KLRD 310525Z 3106/0106 14008KT P6SM FEW020 FEW250
      TEMPO 3110/3114 BKN015
     FM311500 14008KT P6SM SCT040 SCT200
     FM312300 14010KT P6SM VCSH SCT060 SCT200
     FM010200 13015KT P6SM SCT200=



000
FTUS44 KCRP 310525
TAFALI
TAF
KALI 310525Z 3106/0106 16005KT P6SM FEW020 SCT250
      TEMPO 3110/3113 5SM BR
     FM311500 15008KT P6SM BKN035
     FM312000 13013G20KT P6SM VCTS SCT040CB SCT250
     FM010100 14008KT P6SM SCT250=



000
FTUS44 KCRP 310525
TAFCRP
TAF
KCRP 310525Z 3106/0106 16006KT P6SM FEW020 SCT250
     FM311500 15008KT P6SM VCSH BKN035
     FM311800 13012G18KT P6SM VCTS SCT035CB SCT250
     FM312100 13014G20KT P6SM SCT035 SCT250
     FM010200 14010KT P6SM FEW024 SCT250=



000
FTUS44 KCRP 310525
TAFVCT
TAF
KVCT 310525Z 3106/0106 15005KT P6SM FEW020 SCT250
      TEMPO 3111/3114 6SM BR
     FM311400 17006KT P6SM VCSH BKN035
     FM311900 15012KT P6SM VCTS SCT040CB SCT250
     FM312300 14007KT P6SM SCT200=



000
FTUS44 KCRP 302328
TAFALI
TAF
KALI 302328Z 3100/3124 13015G20KT P6SM FEW050 SCT250
     FM310300 15008KT P6SM FEW020
      TEMPO 3110/3113 5SM BR
     FM311600 15008KT P6SM BKN035
     FM312100 13012G20KT P6SM VCSH SCT050 SCT250=



000
FTUS44 KCRP 302328
TAFLRD
TAF
KLRD 302328Z 3100/3124 11008KT P6SM FEW070 SCT250
     FM310100 12012G18KT P6SM FEW250
     FM310700 14008KT P6SM FEW020 SCT200
     FM311600 16008KT P6SM SCT040 SCT200
     FM312100 15008KT P6SM BKN070=



000
FTUS44 KCRP 302328
TAFCRP
TAF
KCRP 302328Z 3100/3124 13015G20KT P6SM FEW035 SCT250
     FM310200 15008KT P6SM FEW020
     FM311500 15008KT P6SM BKN035
     FM311900 13012G20KT P6SM VCSH SCT040 SCT250=



000
FTUS44 KCRP 302328
TAFVCT
TAF
KVCT 302328Z 3100/3124 14008KT P6SM SCT250
     FM311000 VRB03KT 5SM BR SKC
     FM311400 17006KT P6SM VCSH BKN035
     FM312100 15012G18KT P6SM VCSH SCT050 SCT250=



000
FTUS44 KCRP 302328
TAFALI
TAF
KALI 302328Z 3100/3124 13015G20KT P6SM FEW050 SCT250
     FM310300 15008KT P6SM FEW020
      TEMPO 3110/3113 5SM BR
     FM311600 15008KT P6SM BKN035
     FM312100 13012G20KT P6SM VCSH SCT050 SCT250=



000
FTUS44 KCRP 302328
TAFLRD
TAF
KLRD 302328Z 3100/3124 11008KT P6SM FEW070 SCT250
     FM310100 12012G18KT P6SM FEW250
     FM310700 14008KT P6SM FEW020 SCT200
     FM311600 16008KT P6SM SCT040 SCT200
     FM312100 15008KT P6SM BKN070=



000
FTUS44 KCRP 302328
TAFCRP
TAF
KCRP 302328Z 3100/3124 13015G20KT P6SM FEW035 SCT250
     FM310200 15008KT P6SM FEW020
     FM311500 15008KT P6SM BKN035
     FM311900 13012G20KT P6SM VCSH SCT040 SCT250=



000
FTUS44 KCRP 302328
TAFVCT
TAF
KVCT 302328Z 3100/3124 14008KT P6SM SCT250
     FM311000 VRB03KT 5SM BR SKC
     FM311400 17006KT P6SM VCSH BKN035
     FM312100 15012G18KT P6SM VCSH SCT050 SCT250=



000
FTUS44 KCRP 302205 AAA
TAFCRP
TAF AMD
KCRP 302205Z 3022/3118 13012G22KT P6SM FEW040 SCT250
     FM310200 15012KT P6SM FEW025 SCT250
     FM311000 VRB03KT P6SM VCSH SCT020 BKN150
      TEMPO 3110/3112 5SM BR BKN020
     FM311500 15004KT P6SM VCSH SCT025 BKN030=



000
FTUS44 KCRP 301729
TAFCRP
TAF
KCRP 301729Z 3018/3118 11008G15KT P6SM SCT030 BKN250
     FM301930 10014G20KT P6SM SCT035
     FM310200 15012KT P6SM FEW025 BKN200
     FM311000 VRB03KT P6SM VCSH SCT020 BKN150
      TEMPO 3110/3112 5SM BR BKN020
     FM311500 15004KT P6SM VCSH SCT025 BKN030=



000
FTUS44 KCRP 301729
TAFCRP
TAF
KCRP 301729Z 3018/3118 11008G15KT P6SM SCT030 BKN250
     FM301930 10014G20KT P6SM SCT035
     FM310200 15012KT P6SM FEW025 BKN200
     FM311000 VRB03KT P6SM VCSH SCT020 BKN150
      TEMPO 3110/3112 5SM BR BKN020
     FM311500 15004KT P6SM VCSH SCT025 BKN030=



000
FTUS44 KCRP 301729
TAFALI
TAF
KALI 301729Z 3018/3118 VRB03KT P6SM SCT035 BKN250
     FM302100 13010G18KT P6SM BKN040
     FM310200 15008KT P6SM FEW025 BKN200
     FM311000 VRB03KT 5SM BR SCT020 BKN150
      TEMPO 3110/3113 2SM BR BKN020
     FM311500 15004KT P6SM VCSH BKN030=



000
FTUS44 KCRP 301729
TAFLRD
TAF
KLRD 301729Z 3018/3118 14009KT P6SM SCT050
     FM310300 11015KT P6SM BKN150
     FM310800 14007KT P6SM BKN020 OVC200
     FM311500 14009KT P6SM BKN035 OVC250=



000
FTUS44 KCRP 301729
TAFVCT
TAF
KVCT 301729Z 3018/3118 VRB03KT P6SM SKC
     FM302200 15008KT P6SM FEW050
     FM310900 VRB03KT 5SM BR SCT025 BKN250
      TEMPO 3110/3112 2SM BR
     FM311300 VRB03KT P6SM VCSH BKN030=



000
FTUS44 KCRP 301729
TAFVCT
TAF
KVCT 301729Z 3018/3118 VRB03KT P6SM SKC
     FM302200 15008KT P6SM FEW050
     FM310900 VRB03KT 5SM BR SCT025 BKN250
      TEMPO 3110/3112 2SM BR
     FM311300 VRB03KT P6SM VCSH BKN030=



000
FTUS44 KCRP 301729
TAFLRD
TAF
KLRD 301729Z 3018/3118 14009KT P6SM SCT050
     FM310300 11015KT P6SM BKN150
     FM310800 14007KT P6SM BKN020 OVC200
     FM311500 14009KT P6SM BKN035 OVC250=



000
FTUS44 KCRP 301729
TAFALI
TAF
KALI 301729Z 3018/3118 VRB03KT P6SM SCT035 BKN250
     FM302100 13010G18KT P6SM BKN040
     FM310200 15008KT P6SM FEW025 BKN200
     FM311000 VRB03KT 5SM BR SCT020 BKN150
      TEMPO 3110/3113 2SM BR BKN020
     FM311500 15004KT P6SM VCSH BKN030=



000
FTUS44 KCRP 301129
TAFCRP
TAF
KCRP 301129Z 3012/3112 VRB05KT P6SM SCT025 BKN035 BKN250
     FM301900 12012G19KT P6SM SCT040 SCT250
     FM310100 15007KT P6SM FEW035=



000
FTUS44 KCRP 301129
TAFLRD
TAF
KLRD 301129Z 3012/3112 12008KT P6SM FEW040 SCT250
     FM310300 12015KT P6SM SKC
     FM310800 14009KT P6SM SCT020=



000
FTUS44 KCRP 301129
TAFVCT
TAF
KVCT 301129Z 3012/3112 VRB03KT P6SM BKN250
      TEMPO 3012/3014 6SM BR BKN250
     FM301500 VRB04KT P6SM SCT035 BKN250
     FM302200 15008KT P6SM FEW050
     FM310900 VRB03KT 5SM BR FEW020=



000
FTUS44 KCRP 301129
TAFALI
TAF
KALI 301129Z 3012/3112 VRB04KT P6SM FEW024 BKN250
     FM301400 18005KT P6SM SCT025 SCT035 SCT250
     FM302000 13009G15KT P6SM SCT050
     FM310100 15007KT P6SM SKC
     FM311000 17003KT 4SM BR SCT022=



000
FTUS44 KCRP 301129
TAFLRD
TAF
KLRD 301129Z 3012/3112 12008KT P6SM FEW040 SCT250
     FM310300 12015KT P6SM SKC
     FM310800 14009KT P6SM SCT020=



000
FTUS44 KCRP 301129
TAFCRP
TAF
KCRP 301129Z 3012/3112 VRB05KT P6SM SCT025 BKN035 BKN250
     FM301900 12012G19KT P6SM SCT040 SCT250
     FM310100 15007KT P6SM FEW035=



000
FTUS44 KCRP 301129
TAFALI
TAF
KALI 301129Z 3012/3112 VRB04KT P6SM FEW024 BKN250
     FM301400 18005KT P6SM SCT025 SCT035 SCT250
     FM302000 13009G15KT P6SM SCT050
     FM310100 15007KT P6SM SKC
     FM311000 17003KT 4SM BR SCT022=



000
FTUS44 KCRP 301129
TAFVCT
TAF
KVCT 301129Z 3012/3112 VRB03KT P6SM BKN250
      TEMPO 3012/3014 6SM BR BKN250
     FM301500 VRB04KT P6SM SCT035 BKN250
     FM302200 15008KT P6SM FEW050
     FM310900 VRB03KT 5SM BR FEW020=



    US Dept of Commerce
    National Oceanic and Atmospheric Administration
    National Weather Service
    1325 East West Highway
    Silver Spring, MD 20910
    Page Author: NWS Internet Services Team
Disclaimer
Information Quality
Credits
Glossary
Privacy Policy
Freedom of Information Act (FOIA)
About Us
Career Opportunities